KJCT/JCT METAR and TAF weather

Enter ICAO airport designator
Station Type Date Time Source
KJCT METAR 2019/12/09 13:51 UTC NOAA

KJCT 091351Z AUTO 27004KT 4SM BR CLR 12/11 A2990 RMK AO2 SLP100 T01170106 PWINO


Station Type Date Time Source
KJCT Decoded METAR 2019/12/09 13:51 UTC NOAA

KIMBLE COUNTY AIRPORT, TX, United States (KJCT) 30-31N 099-46W 523M
Dec 09, 2019 - 08:51 AM EST / 2019.12.09 1351 UTC
Wind: from the W (270 degrees) at 5 MPH (4 KT):0
Visibility: 4 mile(s):0
Sky conditions: clear
Weather: mist
Temperature: 53.1 F (11.7 C)
Dew Point: 51.1 F (10.6 C)
Relative Humidity: 92%
Pressure (altimeter): 29.9 in. Hg (1012 hPa)
ob: KJCT 091351Z AUTO 27004KT 4SM BR CLR 12/11 A2990 RMK AO2 SLP100 T01170106 PWINO
cycle: 14

Station Type Date Time Source
KJCT TAF 2019/12/09 12:39 UTC NOAA

TAF KJCT 091137Z 0912/1012 VRB03KT P6SM BKN250
FM091800 35010KT P6SM BKN250
FM100100 01012G19KT P6SM OVC100
FM100800 03012G18KT P6SM -RA OVC025

Example: see airport list